createdAt,value
2017-02-14T00:00:23.029Z,1036.25
2017-02-14T00:01:03.516Z,1036.29
2017-02-14T00:01:44.118Z,1036.25
2017-02-14T00:02:24.605Z,1036.25
2017-02-14T00:03:05.111Z,1036.3
2017-02-14T00:03:45.628Z,1036.25
2017-02-14T00:04:26.194Z,1036.3
2017-02-14T00:05:06.653Z,1036.22
2017-02-14T00:05:47.167Z,1036.24
2017-02-14T00:06:27.645Z,1036.28
2017-02-14T00:07:08.159Z,1036.24
2017-02-14T00:07:48.609Z,1036.28
2017-02-14T00:08:29.114Z,1036.27
2017-02-14T00:09:09.628Z,1036.32
2017-02-14T00:09:50.101Z,1036.3
2017-02-14T00:10:30.718Z,1036.3
2017-02-14T00:11:11.263Z,1036.3
2017-02-14T00:11:51.735Z,1036.27
2017-02-14T00:12:32.223Z,1036.31
2017-02-14T00:13:13.712Z,1036.25
2017-02-14T00:13:54.287Z,1036.24
2017-02-14T00:14:34.766Z,1036.28
2017-02-14T00:15:15.272Z,1036.26
2017-02-14T00:15:56.291Z,1036.2
2017-02-14T00:16:36.823Z,1036.23
2017-02-14T00:17:17.369Z,1036.25
2017-02-14T00:17:57.820Z,1036.24
2017-02-14T00:18:38.298Z,1036.24
2017-02-14T00:19:18.827Z,1036.26
2017-02-14T00:19:59.293Z,1036.23
2017-02-14T00:20:39.824Z,1036.21
2017-02-14T00:21:20.347Z,1036.19
2017-02-14T00:22:00.879Z,1036.22
2017-02-14T00:22:41.352Z,1036.16
2017-02-14T00:23:21.814Z,1036.16
2017-02-14T00:24:02.363Z,1036.11
2017-02-14T00:24:42.843Z,1036.11
2017-02-14T00:25:23.317Z,1036.08
2017-02-14T00:26:03.884Z,1036.09
2017-02-14T00:26:44.419Z,1036.1
2017-02-14T00:27:24.932Z,1036.1
2017-02-14T00:28:05.428Z,1036.08
2017-02-14T00:28:45.985Z,1036.11
2017-02-14T00:29:26.487Z,1036.09
2017-02-14T00:30:07.019Z,1036.12
2017-02-14T00:30:47.481Z,1036.1
2017-02-14T00:31:28.009Z,1036.14
2017-02-14T00:32:08.467Z,1036.1
2017-02-14T00:32:48.940Z,1036.12
2017-02-14T00:33:29.471Z,1036.13
2017-02-14T00:35:42.697Z,1036.2
2017-02-14T00:36:23.260Z,1036.22
2017-02-14T00:37:03.791Z,1036.2
2017-02-14T00:37:44.337Z,1036.18
2017-02-14T00:38:24.854Z,1036.21
2017-02-14T00:39:05.930Z,1036.16
2017-02-14T00:39:46.459Z,1036.17
2017-02-14T00:40:26.871Z,1036.16
2017-02-14T00:41:07.399Z,1036.18
2017-02-14T00:41:47.866Z,1036.26
2017-02-14T00:42:29.165Z,1036.18
2017-02-14T00:43:09.588Z,1036.21
2017-02-14T00:43:51.059Z,1036.18
2017-02-14T00:44:31.541Z,1036.23
2017-02-14T00:45:12.031Z,1036.2
2017-02-14T00:45:52.521Z,1036.21
2017-02-14T00:46:32.994Z,1036.26
2017-02-14T00:47:13.492Z,1036.24
2017-02-14T00:47:54.013Z,1036.25
2017-02-14T00:48:34.501Z,1036.24
2017-02-14T00:49:14.988Z,1036.26
2017-02-14T00:49:55.441Z,1036.21
2017-02-14T00:50:35.999Z,1036.22
2017-02-14T00:51:16.467Z,1036.19
2017-02-14T00:51:56.989Z,1036.22
2017-02-14T00:52:37.516Z,1036.19
2017-02-14T00:53:17.952Z,1036.23
2017-02-14T00:53:59.215Z,1036.2
2017-02-14T00:54:39.717Z,1036.2
2017-02-14T00:55:20.200Z,1036.16
2017-02-14T00:56:00.723Z,1036.15
2017-02-14T00:56:41.159Z,1036.15
2017-02-14T00:57:21.621Z,1036.13
2017-02-14T00:58:02.087Z,1036.18
2017-02-14T00:58:42.582Z,1036.15
2017-02-14T00:59:23.077Z,1036.18
2017-02-14T01:00:03.579Z,1036.17
2017-02-14T01:00:44.046Z,1036.17
2017-02-14T01:01:24.564Z,1036.13
2017-02-14T01:02:05.128Z,1036.17
2017-02-14T01:02:45.549Z,1036.19
2017-02-14T01:03:26.124Z,1036.19
2017-02-14T01:04:06.613Z,1036.17
2017-02-14T01:04:47.100Z,1036.19
2017-02-14T01:05:27.595Z,1036.18
2017-02-14T01:06:08.122Z,1036.15
2017-02-14T01:06:48.588Z,1036.13
2017-02-14T01:07:29.098Z,1036.13
2017-02-14T01:08:09.646Z,1036.14
2017-02-14T01:08:50.088Z,1036.17
2017-02-14T01:09:30.615Z,1036.16
2017-02-14T01:10:11.155Z,1036.15
2017-02-14T01:10:51.685Z,1036.14
2017-02-14T01:11:32.165Z,1036.13
2017-02-14T01:12:12.662Z,1036.18
2017-02-14T01:12:53.141Z,1036.17
2017-02-14T01:13:33.624Z,1036.17
2017-02-14T01:14:14.110Z,1036.12
2017-02-14T01:14:54.623Z,1036.15
2017-02-14T01:15:35.125Z,1036.13
2017-02-14T01:16:15.621Z,1036.13
2017-02-14T01:16:56.141Z,1036.14
2017-02-14T01:17:36.682Z,1036.11
2017-02-14T01:18:17.096Z,1036.11
2017-02-14T01:18:58.230Z,1036.12
2017-02-14T01:19:38.681Z,1036.1
2017-02-14T01:20:19.182Z,1036.11
2017-02-14T01:20:59.727Z,1036.08
2017-02-14T01:21:40.225Z,1036.1
2017-02-14T01:22:20.687Z,1036.1
2017-02-14T01:23:01.194Z,1036.07
2017-02-14T01:23:41.682Z,1036.11
2017-02-14T01:24:22.222Z,1036.08
2017-02-14T01:25:03.371Z,1036.08
2017-02-14T01:25:43.830Z,1036.1
2017-02-14T01:26:25.243Z,1036.04
2017-02-14T01:27:05.741Z,1036.11
2017-02-14T01:27:46.211Z,1036.12
2017-02-14T01:28:27.492Z,1036.11
2017-02-14T01:29:07.968Z,1036.09
2017-02-14T01:29:48.454Z,1036.12
2017-02-14T01:30:29.000Z,1036.12
2017-02-14T01:31:09.417Z,1036.13
2017-02-14T01:31:49.919Z,1036.09
2017-02-14T01:32:31.920Z,1036.09
2017-02-14T01:33:12.491Z,1036.08
2017-02-14T01:33:52.939Z,1036.05
2017-02-14T01:34:33.465Z,1036.06
2017-02-14T01:35:14.003Z,1036.08
2017-02-14T01:35:54.423Z,1036.03
2017-02-14T01:36:34.882Z,1036.03
2017-02-14T01:37:15.376Z,1036.03
2017-02-14T01:37:55.877Z,1036.01
2017-02-14T01:38:36.447Z,1036.01
2017-02-14T01:39:16.981Z,1036.03
2017-02-14T01:39:57.442Z,1035.99
2017-02-14T01:40:37.940Z,1036
2017-02-14T01:41:18.442Z,1035.99
2017-02-14T01:41:58.905Z,1035.97
2017-02-14T01:42:39.457Z,1035.99
2017-02-14T01:43:19.920Z,1035.99
2017-02-14T01:44:00.438Z,1035.97
2017-02-14T01:44:41.006Z,1035.97
2017-02-14T01:45:22.339Z,1035.96
2017-02-14T01:46:02.879Z,1035.96
2017-02-14T01:46:43.407Z,1035.92
2017-02-14T01:47:23.891Z,1035.93
2017-02-14T01:48:04.410Z,1035.96
2017-02-14T01:48:44.869Z,1035.96
2017-02-14T01:49:25.354Z,1035.91
2017-02-14T01:50:06.624Z,1035.95
2017-02-14T01:50:47.643Z,1035.96
2017-02-14T01:51:28.704Z,1035.93
2017-02-14T01:52:09.225Z,1035.93
2017-02-14T01:52:49.689Z,1035.9
2017-02-14T01:53:31.098Z,1035.91
2017-02-14T01:54:11.600Z,1035.92
2017-02-14T01:54:52.100Z,1035.87
2017-02-14T01:55:32.598Z,1035.89
2017-02-14T01:56:13.097Z,1035.91
2017-02-14T01:56:53.593Z,1035.93
2017-02-14T01:57:34.090Z,1035.92
2017-02-14T01:58:14.553Z,1035.89
2017-02-14T01:58:56.350Z,1035.88
2017-02-14T01:59:36.867Z,1035.82
2017-02-14T02:00:17.314Z,1035.83
2017-02-14T02:00:57.845Z,1035.81
2017-02-14T02:01:38.333Z,1035.79
2017-02-14T02:02:19.719Z,1035.82
2017-02-14T02:03:00.209Z,1035.81
2017-02-14T02:03:40.739Z,1035.76
2017-02-14T02:04:22.091Z,1035.77
2017-02-14T02:05:02.651Z,1035.76
2017-02-14T02:05:43.111Z,1035.72
2017-02-14T02:06:24.385Z,1035.72
2017-02-14T02:07:04.850Z,1035.75
2017-02-14T02:07:45.402Z,1035.69
2017-02-14T02:08:25.925Z,1035.66
2017-02-14T02:09:06.481Z,1035.7
2017-02-14T02:09:46.975Z,1035.67
2017-02-14T02:10:28.470Z,1035.67
2017-02-14T02:11:09.017Z,1035.64
2017-02-14T02:11:49.492Z,1035.66
2017-02-14T02:12:29.994Z,1035.61
2017-02-14T02:13:11.463Z,1035.62
2017-02-14T02:13:51.992Z,1035.6
2017-02-14T02:14:32.410Z,1035.69
2017-02-14T02:15:12.924Z,1035.65
2017-02-14T02:15:53.415Z,1035.61
2017-02-14T02:16:34.721Z,1035.59
2017-02-14T02:17:15.276Z,1035.6
2017-02-14T02:17:55.765Z,1035.65
2017-02-14T02:18:36.207Z,1035.67
2017-02-14T02:19:16.731Z,1035.65
2017-02-14T02:19:57.151Z,1035.64
2017-02-14T02:20:37.691Z,1035.63
2017-02-14T02:21:18.197Z,1035.62
2017-02-14T02:21:58.737Z,1035.61
2017-02-14T02:22:39.201Z,1035.58
2017-02-14T02:23:19.681Z,1035.58
2017-02-14T02:24:00.190Z,1035.64
2017-02-14T02:24:40.706Z,1035.66
2017-02-14T02:25:22.078Z,1035.63
2017-02-14T02:26:02.541Z,1035.58
2017-02-14T02:26:43.076Z,1035.59
2017-02-14T02:27:23.569Z,1035.59
2017-02-14T02:28:04.091Z,1035.63
2017-02-14T02:28:44.545Z,1035.59
2017-02-14T02:29:25.087Z,1035.61
2017-02-14T02:30:05.580Z,1035.58
2017-02-14T02:30:46.134Z,1035.6
2017-02-14T02:31:27.565Z,1035.55
2017-02-14T02:32:08.027Z,1035.59
2017-02-14T02:32:48.524Z,1035.58
2017-02-14T02:33:29.031Z,1035.57
2017-02-14T02:34:09.536Z,1035.56
2017-02-14T02:34:50.997Z,1035.53
2017-02-14T02:35:31.449Z,1035.48
2017-02-14T02:36:11.957Z,1035.47
2017-02-14T02:36:52.527Z,1035.47
2017-02-14T02:37:33.949Z,1035.44
2017-02-14T02:38:15.116Z,1035.44
2017-02-14T02:38:56.559Z,1035.41
2017-02-14T02:39:37.058Z,1035.41
2017-02-14T02:40:18.142Z,1035.39
2017-02-14T02:40:58.589Z,1035.42
2017-02-14T02:41:39.099Z,1035.43
2017-02-14T02:42:19.854Z,1035.41
2017-02-14T02:43:00.281Z,1035.39
2017-02-14T02:43:40.809Z,1035.41
2017-02-14T02:44:21.284Z,1035.32
2017-02-14T02:45:01.747Z,1035.36
2017-02-14T02:45:42.910Z,1035.34
2017-02-14T02:46:23.421Z,1035.28
2017-02-14T02:47:03.944Z,1035.33
2017-02-14T02:47:45.369Z,1035.32
2017-02-14T02:48:25.877Z,1035.29
2017-02-14T02:49:06.364Z,1035.28
2017-02-14T02:49:47.636Z,1035.29
2017-02-14T02:51:48.011Z,1035.34
2017-02-14T02:52:28.565Z,1035.31
2017-02-14T02:53:11.775Z,1035.37
2017-02-14T02:53:52.240Z,1035.29
2017-02-14T02:54:35.678Z,1035.34
2017-02-14T02:55:18.097Z,1035.32
2017-02-14T02:57:38.734Z,1035.38
2017-02-14T02:58:19.419Z,1035.36
2017-02-14T02:58:59.910Z,1035.4
2017-02-14T02:59:40.392Z,1035.42
2017-02-14T03:00:21.852Z,1035.4
2017-02-14T03:01:03.216Z,1035.44
2017-02-14T03:01:43.726Z,1035.51
2017-02-14T03:02:24.229Z,1035.48
2017-02-14T03:03:04.686Z,1035.52
2017-02-14T03:03:45.182Z,1035.48
2017-02-14T03:04:26.189Z,1035.51
2017-02-14T03:05:06.692Z,1035.52
2017-02-14T03:05:47.198Z,1035.54
2017-02-14T03:06:27.682Z,1035.53
2017-02-14T03:07:08.179Z,1035.55
2017-02-14T03:07:48.666Z,1035.56
2017-02-14T03:08:29.181Z,1035.54
2017-02-14T03:09:09.718Z,1035.54
2017-02-14T03:09:50.175Z,1035.6
2017-02-14T03:10:31.377Z,1035.56
2017-02-14T03:11:12.771Z,1035.54
2017-02-14T03:11:53.292Z,1035.6
2017-02-14T03:12:34.601Z,1035.55
2017-02-14T03:13:15.018Z,1035.57
2017-02-14T03:13:56.334Z,1035.55
2017-02-14T03:14:36.792Z,1035.55
2017-02-14T03:15:17.792Z,1035.58
2017-02-14T03:15:59.583Z,1035.55
2017-02-14T03:16:40.090Z,1035.58
2017-02-14T03:17:20.608Z,1035.59
2017-02-14T03:18:01.199Z,1035.6
2017-02-14T03:18:41.655Z,1035.54
2017-02-14T03:19:22.114Z,1035.58
2017-02-14T03:20:04.270Z,1035.52
2017-02-14T03:20:45.417Z,1035.55
2017-02-14T03:21:25.932Z,1035.48
2017-02-14T03:22:06.387Z,1035.49
2017-02-14T03:22:46.908Z,1035.54
2017-02-14T03:23:27.342Z,1035.52
2017-02-14T03:24:07.822Z,1035.48
2017-02-14T03:24:48.336Z,1035.46
2017-02-14T03:25:29.767Z,1035.49
2017-02-14T03:26:10.275Z,1035.48
2017-02-14T03:26:50.729Z,1035.46
2017-02-14T03:27:31.266Z,1035.43
2017-02-14T03:28:11.744Z,1035.44
2017-02-14T03:28:52.890Z,1035.44
2017-02-14T03:29:33.349Z,1035.49
2017-02-14T03:30:14.551Z,1035.48
2017-02-14T03:30:55.094Z,1035.45
2017-02-14T03:31:36.548Z,1035.38
2017-02-14T03:32:17.054Z,1035.43
2017-02-14T03:32:57.546Z,1035.38
2017-02-14T03:33:38.048Z,1035.4
2017-02-14T03:34:18.526Z,1035.39
2017-02-14T03:34:59.085Z,1035.43
2017-02-14T03:35:39.550Z,1035.43
2017-02-14T03:36:20.970Z,1035.4
2017-02-14T03:37:01.551Z,1035.42
2017-02-14T03:37:41.997Z,1035.44
2017-02-14T03:38:23.050Z,1035.44
2017-02-14T03:39:03.499Z,1035.49
2017-02-14T03:39:43.980Z,1035.48
2017-02-14T03:40:24.453Z,1035.48
2017-02-14T03:41:04.945Z,1035.46
2017-02-14T03:41:45.428Z,1035.49
2017-02-14T03:42:25.920Z,1035.5
2017-02-14T03:43:06.399Z,1035.5
2017-02-14T03:43:46.928Z,1035.48
2017-02-14T03:44:27.450Z,1035.49
2017-02-14T03:45:07.915Z,1035.48
2017-02-14T03:45:49.077Z,1035.46
2017-02-14T03:46:29.606Z,1035.47
2017-02-14T03:47:10.978Z,1035.43
2017-02-14T03:47:51.504Z,1035.46
2017-02-14T03:48:31.989Z,1035.4
2017-02-14T03:49:13.102Z,1035.46
2017-02-14T03:49:54.405Z,1035.43
2017-02-14T03:50:35.713Z,1035.44
2017-02-14T03:51:16.210Z,1035.41
2017-02-14T03:51:56.778Z,1035.41
2017-02-14T03:52:37.209Z,1035.43
2017-02-14T03:53:17.691Z,1035.41
2017-02-14T03:53:58.222Z,1035.38
2017-02-14T03:54:38.738Z,1035.35
2017-02-14T03:55:19.206Z,1035.3
2017-02-14T03:56:00.360Z,1035.28
2017-02-14T03:56:41.665Z,1035.33
2017-02-14T03:57:22.158Z,1035.24
2017-02-14T03:58:03.365Z,1035.3
2017-02-14T03:58:43.864Z,1035.29
2017-02-14T03:59:24.335Z,1035.25
2017-02-14T04:00:04.803Z,1035.27
2017-02-14T04:00:45.292Z,1035.27
2017-02-14T04:01:26.464Z,1035.25
2017-02-14T04:02:07.450Z,1035.27
2017-02-14T04:02:48.805Z,1035.24
2017-02-14T04:03:30.078Z,1035.28
2017-02-14T04:04:11.043Z,1035.27
2017-02-14T04:04:51.577Z,1035.26
2017-02-14T04:05:32.040Z,1035.25
2017-02-14T04:06:12.562Z,1035.18
2017-02-14T04:06:53.581Z,1035.24
2017-02-14T04:07:34.018Z,1035.21
2017-02-14T04:08:15.285Z,1035.2
2017-02-14T04:08:55.762Z,1035.26
2017-02-14T04:09:36.265Z,1035.3
2017-02-14T04:10:16.788Z,1035.31
2017-02-14T04:10:57.303Z,1035.24
2017-02-14T04:11:37.773Z,1035.3
2017-02-14T04:12:18.373Z,1035.23
2017-02-14T04:12:58.902Z,1035.24
2017-02-14T04:13:40.344Z,1035.26
2017-02-14T04:14:20.760Z,1035.26
2017-02-14T04:15:01.290Z,1035.26
2017-02-14T04:15:41.759Z,1035.25
2017-02-14T04:16:22.246Z,1035.24
2017-02-14T04:17:02.719Z,1035.22
2017-02-14T04:17:45.038Z,1035.19
2017-02-14T04:18:26.601Z,1035.22
2017-02-14T04:19:07.041Z,1035.18
2017-02-14T04:19:47.551Z,1035.12
2017-02-14T04:20:28.959Z,1035.16
2017-02-14T04:21:10.265Z,1035.19
2017-02-14T04:21:51.510Z,1035.2
2017-02-14T04:22:32.005Z,1035.22
2017-02-14T04:23:12.506Z,1035.17
2017-02-14T04:23:53.033Z,1035.18
2017-02-14T04:24:34.335Z,1035.19
2017-02-14T04:25:14.902Z,1035.16
2017-02-14T04:25:55.352Z,1035.15
2017-02-14T04:26:36.478Z,1035.15
2017-02-14T04:27:17.941Z,1035.13
2017-02-14T04:27:58.489Z,1035.06
2017-02-14T04:28:39.008Z,1035.11
2017-02-14T04:29:19.475Z,1035
2017-02-14T04:30:00.033Z,1035.06
2017-02-14T04:30:41.420Z,1035.07
2017-02-14T04:31:21.990Z,1035.08
2017-02-14T04:32:02.426Z,1035.09
2017-02-14T04:32:43.487Z,1035.1
2017-02-14T04:33:23.973Z,1035.14
2017-02-14T04:34:04.502Z,1035.1
2017-02-14T04:34:45.014Z,1035.12
2017-02-14T04:35:25.485Z,1035.1
2017-02-14T04:36:06.760Z,1035.13
2017-02-14T04:36:47.228Z,1035.13
2017-02-14T04:37:27.746Z,1035.12
2017-02-14T04:38:08.236Z,1035.14
2017-02-14T04:38:48.739Z,1035.17
2017-02-14T04:39:29.234Z,1035.14
2017-02-14T04:40:09.820Z,1035.15
2017-02-14T04:40:50.227Z,1035.15
2017-02-14T04:41:30.762Z,1035.13
2017-02-14T04:42:11.228Z,1035.16
2017-02-14T04:42:51.729Z,1035.08
2017-02-14T04:43:32.167Z,1035.11
2017-02-14T04:44:12.667Z,1035.12
2017-02-14T04:44:53.173Z,1035.11
2017-02-14T04:45:33.667Z,1035.12
2017-02-14T04:46:14.184Z,1035.12
2017-02-14T04:46:55.559Z,1035.13
2017-02-14T04:47:37.002Z,1035.09
2017-02-14T04:48:17.453Z,1035.11
2017-02-14T04:48:57.955Z,1035.14
2017-02-14T04:49:38.470Z,1035.14
2017-02-14T04:50:19.019Z,1035.15
2017-02-14T04:50:59.487Z,1035.17
2017-02-14T04:51:39.989Z,1035.16
2017-02-14T04:52:20.497Z,1035.17
2017-02-14T04:53:01.009Z,1035.19
2017-02-14T04:53:41.480Z,1035.18
2017-02-14T04:54:21.959Z,1035.19
2017-02-14T04:55:02.458Z,1035.23
2017-02-14T04:55:42.952Z,1035.17
2017-02-14T04:56:23.411Z,1035.16
2017-02-14T04:57:03.932Z,1035.21
2017-02-14T04:57:45.229Z,1035.25
2017-02-14T04:58:25.676Z,1035.25
2017-02-14T04:59:06.215Z,1035.17
2017-02-14T04:59:46.722Z,1035.16
2017-02-14T05:02:15.180Z,1035.16
2017-02-14T05:02:55.631Z,1035.17
2017-02-14T05:03:36.171Z,1035.16
2017-02-14T05:04:16.696Z,1035.13
2017-02-14T05:04:57.145Z,1035.21
2017-02-14T05:05:38.105Z,1035.08
2017-02-14T05:06:18.627Z,1035.23
2017-02-14T05:07:00.713Z,1035.21
2017-02-14T05:07:41.254Z,1035.25
2017-02-14T05:08:23.336Z,1035.23
2017-02-14T05:09:03.795Z,1035.28
2017-02-14T05:09:44.468Z,1035.24
2017-02-14T05:10:25.004Z,1035.27
2017-02-14T05:11:05.534Z,1035.24
2017-02-14T05:11:45.995Z,1035.25
2017-02-14T05:12:26.563Z,1035.28
2017-02-14T05:13:07.007Z,1035.28
2017-02-14T05:13:50.143Z,1035.27
2017-02-14T05:14:30.649Z,1035.22
2017-02-14T05:15:11.163Z,1035.2
2017-02-14T05:15:51.650Z,1035.2
2017-02-14T05:16:32.121Z,1035.23
2017-02-14T05:17:12.640Z,1035.23
2017-02-14T05:17:53.151Z,1035.17
2017-02-14T05:18:33.577Z,1035.2
2017-02-14T05:19:14.080Z,1035.21
2017-02-14T05:19:54.699Z,1035.17
2017-02-14T05:20:35.175Z,1035.22
2017-02-14T05:21:15.678Z,1035.12
2017-02-14T05:21:56.136Z,1035.17
2017-02-14T05:22:36.647Z,1035.21
2017-02-14T05:23:17.131Z,1035.15
2017-02-14T05:23:57.624Z,1035.15
2017-02-14T05:24:38.168Z,1035.16
2017-02-14T05:25:18.641Z,1035.13
2017-02-14T05:25:59.167Z,1035.16
2017-02-14T05:26:39.773Z,1035.19
2017-02-14T05:27:20.240Z,1035.19
2017-02-14T05:28:00.721Z,1035.18
2017-02-14T05:28:41.326Z,1035.19
2017-02-14T05:29:21.792Z,1035.2
2017-02-14T05:30:02.300Z,1035.19
2017-02-14T05:30:42.860Z,1035.22
2017-02-14T05:31:23.380Z,1035.2
2017-02-14T05:32:03.876Z,1035.26
2017-02-14T05:32:44.377Z,1035.18
2017-02-14T05:33:24.862Z,1035.17
2017-02-14T05:34:05.365Z,1035.19
2017-02-14T05:34:45.895Z,1035.24
2017-02-14T05:35:26.379Z,1035.22
2017-02-14T05:36:06.891Z,1035.2
2017-02-14T05:36:47.351Z,1035.21
2017-02-14T05:37:27.857Z,1035.21
2017-02-14T05:38:08.424Z,1035.21
2017-02-14T05:38:50.324Z,1035.25
2017-02-14T05:39:30.808Z,1035.24
2017-02-14T05:40:11.233Z,1035.24
2017-02-14T05:40:51.826Z,1035.22
2017-02-14T05:41:32.301Z,1035.28
2017-02-14T05:42:12.835Z,1035.29
2017-02-14T05:42:53.268Z,1035.29
2017-02-14T05:43:33.754Z,1035.28
2017-02-14T05:44:14.272Z,1035.35
2017-02-14T05:44:54.780Z,1035.29
2017-02-14T05:45:35.243Z,1035.32
2017-02-14T05:46:15.744Z,1035.28
2017-02-14T05:46:56.236Z,1035.34
2017-02-14T05:47:36.711Z,1035.25
2017-02-14T05:48:17.205Z,1035.27
2017-02-14T05:48:57.705Z,1035.28
2017-02-14T05:49:38.237Z,1035.28
2017-02-14T05:50:18.717Z,1035.27
2017-02-14T05:50:59.233Z,1035.24
2017-02-14T05:51:39.701Z,1035.25
2017-02-14T05:52:20.246Z,1035.28
2017-02-14T05:53:00.719Z,1035.28
2017-02-14T05:53:41.220Z,1035.26
2017-02-14T05:54:21.751Z,1035.29
2017-02-14T05:55:02.222Z,1035.28
2017-02-14T05:55:42.707Z,1035.31
2017-02-14T05:56:23.256Z,1035.29
2017-02-14T05:57:03.733Z,1035.31
2017-02-14T05:57:44.209Z,1035.28
2017-02-14T05:58:24.765Z,1035.29
2017-02-14T05:59:05.245Z,1035.29
2017-02-14T05:59:45.719Z,1035.21
2017-02-14T06:00:26.196Z,1035.26
2017-02-14T06:01:06.686Z,1035.22
2017-02-14T06:01:47.157Z,1035.24
2017-02-14T06:02:27.695Z,1035.19
2017-02-14T06:03:08.591Z,1035.21
2017-02-14T06:03:49.050Z,1035.17
2017-02-14T06:04:29.601Z,1035.22
2017-02-14T06:05:10.088Z,1035.25
2017-02-14T06:05:50.563Z,1035.23
2017-02-14T06:06:31.034Z,1035.21
2017-02-14T06:07:11.673Z,1035.25
2017-02-14T06:07:52.234Z,1035.17
2017-02-14T06:08:33.251Z,1035.2
2017-02-14T06:09:13.600Z,1035.24
2017-02-14T06:09:54.061Z,1035.19
2017-02-14T06:10:34.550Z,1035.18
2017-02-14T06:11:15.070Z,1035.22
2017-02-14T06:11:55.588Z,1035.14
2017-02-14T06:12:36.180Z,1035.12
2017-02-14T06:13:16.622Z,1035.13
2017-02-14T06:13:57.176Z,1035.07
2017-02-14T06:14:37.613Z,1035.09
2017-02-14T06:15:18.093Z,1035.07
2017-02-14T06:15:58.596Z,1035.03
2017-02-14T06:16:39.113Z,1035.03
2017-02-14T06:17:19.596Z,1035.09
2017-02-14T06:18:00.097Z,1035.06
2017-02-14T06:18:40.611Z,1035.04
2017-02-14T06:19:21.079Z,1035.02
2017-02-14T06:20:01.639Z,1035.03
2017-02-14T06:20:42.152Z,1035.01
2017-02-14T06:21:22.605Z,1035.01
2017-02-14T06:22:03.051Z,1034.93
2017-02-14T06:22:43.552Z,1034.96
2017-02-14T06:23:24.040Z,1034.92
2017-02-14T06:24:04.535Z,1034.95
2017-02-14T06:24:45.027Z,1034.98
2017-02-14T06:25:25.524Z,1034.93
2017-02-14T06:26:06.072Z,1035.01
2017-02-14T06:26:46.601Z,1034.97
2017-02-14T06:27:27.129Z,1035.01
2017-02-14T06:28:07.633Z,1035.02
2017-02-14T06:28:48.118Z,1035.03
2017-02-14T06:29:28.611Z,1035.07
2017-02-14T06:30:09.072Z,1034.97
2017-02-14T06:30:49.563Z,1034.97
2017-02-14T06:31:30.157Z,1035
2017-02-14T06:32:10.572Z,1035.04
2017-02-14T06:32:51.101Z,1035.04
2017-02-14T06:33:31.568Z,1035
2017-02-14T06:34:12.045Z,1035.09
2017-02-14T06:34:52.541Z,1035.06
2017-02-14T06:35:33.005Z,1035.09
2017-02-14T06:36:13.496Z,1035.01
2017-02-14T06:36:54.011Z,1035.08
2017-02-14T06:37:34.452Z,1035.06
2017-02-14T06:38:14.922Z,1035.09
2017-02-14T06:38:55.437Z,1035.12
2017-02-14T06:39:35.959Z,1035.1
2017-02-14T06:40:16.559Z,1035.16
2017-02-14T06:40:56.993Z,1035.15
2017-02-14T06:41:37.487Z,1035.16
2017-02-14T06:42:17.936Z,1035.16
2017-02-14T06:42:58.478Z,1035.18
2017-02-14T06:43:38.945Z,1035.13
2017-02-14T06:44:20.361Z,1035.13
2017-02-14T06:45:00.842Z,1035.16
2017-02-14T06:45:41.297Z,1035.14
2017-02-14T06:46:21.875Z,1035.22
2017-02-14T06:47:02.309Z,1035.24
2017-02-14T06:47:42.786Z,1035.26
2017-02-14T06:48:23.305Z,1035.31
2017-02-14T06:49:03.739Z,1035.3
2017-02-14T06:49:45.136Z,1035.26
2017-02-14T06:50:24.809Z,1035.36
2017-02-14T06:51:05.378Z,1035.32
2017-02-14T06:51:46.260Z,1035.31
2017-02-14T06:52:27.344Z,1035.32
2017-02-14T06:53:07.898Z,1035.31
2017-02-14T06:53:48.770Z,1035.3
2017-02-14T06:54:29.268Z,1035.31
2017-02-14T06:56:32.153Z,1035.26
2017-02-14T06:57:20.498Z,1035.27
2017-02-14T06:58:09.377Z,1035.3
2017-02-14T06:58:58.977Z,1035.3
2017-02-14T06:59:48.212Z,1035.32
2017-02-14T07:00:39.136Z,1035.33
2017-02-14T07:01:28.115Z,1035.31
2017-02-14T07:02:16.456Z,1035.31
2017-02-14T07:03:05.025Z,1035.33
2017-02-14T07:03:53.854Z,1035.29
2017-02-14T07:04:43.051Z,1035.26
2017-02-14T07:05:32.453Z,1035.32
2017-02-14T07:06:21.178Z,1035.3
2017-02-14T07:07:09.953Z,1035.24
2017-02-14T07:08:01.607Z,1035.31
2017-02-14T07:08:51.159Z,1035.31
2017-02-14T07:09:40.785Z,1035.28
2017-02-14T07:10:33.449Z,1035.26
2017-02-14T07:11:24.063Z,1035.27
2017-02-14T07:12:07.315Z,1035.28
2017-02-14T07:12:47.874Z,1035.3
2017-02-14T07:13:28.362Z,1035.3
2017-02-14T07:14:08.814Z,1035.34
2017-02-14T07:14:49.385Z,1035.28
2017-02-14T07:15:29.804Z,1035.28
2017-02-14T07:16:10.362Z,1035.26
2017-02-14T07:16:50.853Z,1035.27
2017-02-14T07:17:31.461Z,1035.3
2017-02-14T07:18:11.952Z,1035.32
2017-02-14T07:18:52.437Z,1035.27
2017-02-14T07:19:33.665Z,1035.3
2017-02-14T07:20:14.180Z,1035.28
2017-02-14T07:20:54.695Z,1035.29
2017-02-14T07:21:35.218Z,1035.28
2017-02-14T07:22:15.753Z,1035.3
2017-02-14T07:22:56.198Z,1035.29
2017-02-14T07:23:36.724Z,1035.28
2017-02-14T07:24:17.225Z,1035.26
2017-02-14T07:24:57.833Z,1035.32
2017-02-14T07:25:38.267Z,1035.32
2017-02-14T07:26:18.768Z,1035.33
2017-02-14T07:26:59.256Z,1035.33
2017-02-14T07:27:39.733Z,1035.36
2017-02-14T07:28:20.218Z,1035.33
2017-02-14T07:29:00.725Z,1035.29
2017-02-14T07:29:41.176Z,1035.36
2017-02-14T07:30:21.847Z,1035.33
2017-02-14T07:31:02.414Z,1035.36
2017-02-14T07:31:42.887Z,1035.31
2017-02-14T07:32:23.385Z,1035.32
2017-02-14T07:33:04.129Z,1035.28
2017-02-14T07:33:51.887Z,1035.34
2017-02-14T07:34:35.848Z,1035.33
2017-02-14T07:35:16.483Z,1035.36
2017-02-14T07:35:56.884Z,1035.34
2017-02-14T07:36:37.342Z,1035.36
2017-02-14T07:37:17.864Z,1035.4
2017-02-14T07:37:58.372Z,1035.38
2017-02-14T07:38:38.893Z,1035.39
2017-02-14T07:39:19.470Z,1035.4
2017-02-14T07:39:59.904Z,1035.46
2017-02-14T07:40:40.497Z,1035.42
2017-02-14T07:41:20.969Z,1035.46
2017-02-14T07:42:01.501Z,1035.45
2017-02-14T07:42:41.968Z,1035.42
2017-02-14T07:43:22.417Z,1035.48
2017-02-14T07:44:02.877Z,1035.46
2017-02-14T07:44:43.414Z,1035.45
2017-02-14T07:45:28.305Z,1035.45
2017-02-14T07:46:08.876Z,1035.47
2017-02-14T07:46:50.039Z,1035.49
2017-02-14T07:47:30.494Z,1035.48
2017-02-14T07:48:12.110Z,1035.45
2017-02-14T07:48:52.517Z,1035.44
2017-02-14T07:49:33.445Z,1035.46
2017-02-14T07:50:14.086Z,1035.51
2017-02-14T07:50:54.555Z,1035.53
2017-02-14T07:51:35.182Z,1035.52
2017-02-14T07:52:15.601Z,1035.56
2017-02-14T07:52:56.159Z,1035.54
2017-02-14T07:53:36.691Z,1035.54
2017-02-14T07:54:17.212Z,1035.54
2017-02-14T07:54:57.648Z,1035.54
2017-02-14T07:55:38.878Z,1035.49
2017-02-14T07:56:19.555Z,1035.51
2017-02-14T07:57:00.084Z,1035.53
2017-02-14T07:57:40.952Z,1035.51
2017-02-14T07:58:21.465Z,1035.47
2017-02-14T07:59:01.926Z,1035.47
2017-02-14T07:59:42.496Z,1035.44
2017-02-14T08:00:22.942Z,1035.47
2017-02-14T08:01:03.452Z,1035.5
2017-02-14T08:01:44.001Z,1035.51
2017-02-14T08:02:24.517Z,1035.52
2017-02-14T08:03:05.183Z,1035.52
2017-02-14T08:03:45.808Z,1035.5
2017-02-14T08:04:26.258Z,1035.55
2017-02-14T08:05:06.823Z,1035.55
2017-02-14T08:05:47.280Z,1035.58
2017-02-14T08:06:27.812Z,1035.56
2017-02-14T08:07:08.263Z,1035.54
2017-02-14T08:07:48.746Z,1035.57
2017-02-14T08:08:29.260Z,1035.56
2017-02-14T08:09:10.089Z,1035.62
2017-02-14T08:09:50.620Z,1035.6
2017-02-14T08:10:31.181Z,1035.67
2017-02-14T08:11:11.675Z,1035.71
2017-02-14T08:11:52.070Z,1035.65
2017-02-14T08:12:33.626Z,1035.71
2017-02-14T08:13:16.099Z,1035.68
2017-02-14T08:13:56.523Z,1035.72
2017-02-14T08:14:37.261Z,1035.72
2017-02-14T08:15:17.720Z,1035.75
2017-02-14T08:15:58.285Z,1035.73
2017-02-14T08:16:39.805Z,1035.67
2017-02-14T08:17:23.914Z,1035.65
2017-02-14T08:18:08.547Z,1035.64
2017-02-14T08:18:51.066Z,1035.68
2017-02-14T08:19:32.498Z,1035.62
2017-02-14T08:20:12.945Z,1035.67
2017-02-14T08:20:53.477Z,1035.67
2017-02-14T08:21:33.968Z,1035.66
2017-02-14T08:22:14.536Z,1035.64
2017-02-14T08:22:55.124Z,1035.67
2017-02-14T08:23:36.411Z,1035.67
2017-02-14T08:24:19.549Z,1035.63